Time;durP1;ratioP1;P1;durP2;ratioP2;P2;SDS_P1;SDS_P2;PMS_P1;PMS_P2;Temp;Humidity;BMP_temperature;BMP_pressure;BME280_temperature;BME280_humidity;BME280_pressure;Samples;Min_cycle;Max_cycle;Signal;HPM_P1;HPM_P2
2023/11/26 00:00:06;;;;;;;0.90;0.38;;;3.50;99.90;;;;;;6127314;23;20029;-89
2023/11/26 00:02:33;;;;;;;1.30;0.40;;;3.40;99.90;;;;;;6116594;23;20026;-89
2023/11/26 00:05:00;;;;;;;3.30;0.50;;;3.40;99.90;;;;;;6127741;23;20057;-89
2023/11/26 00:07:28;;;;;;;1.23;0.50;;;3.40;99.90;;;;;;6077830;23;20060;-89
2023/11/26 00:09:55;;;;;;;1.42;0.50;;;3.40;99.90;;;;;;6121538;23;20053;-89
2023/11/26 00:12:26;;;;;;;2.00;0.65;;;3.30;99.90;;;;;;6103769;23;20079;-89
2023/11/26 00:14:53;;;;;;;2.10;0.40;;;3.20;99.90;;;;;;6126758;23;20029;-89
2023/11/26 00:17:21;;;;;;;1.50;0.50;;;3.20;99.90;;;;;;6102752;23;20072;-89
2023/11/26 00:19:54;;;;;;;2.42;0.47;;;3.20;99.90;;;;;;6097423;23;20058;-89
2023/11/26 00:22:25;;;;;;;1.88;0.40;;;3.20;99.90;;;;;;6102574;23;20402;-89
2023/11/26 00:24:53;;;;;;;0.80;0.30;;;3.20;99.90;;;;;;6097478;23;20532;-89
2023/11/26 00:27:22;;;;;;;2.35;1.25;;;3.10;99.90;;;;;;6102331;23;20017;-89
2023/11/26 00:29:50;;;;;;;0.63;0.30;;;3.10;99.90;;;;;;6097657;23;20015;-89
2023/11/26 00:32:17;;;;;;;1.30;0.47;;;3.10;99.90;;;;;;6101027;23;20026;-90
2023/11/26 00:34:46;;;;;;;0.75;0.30;;;3.00;99.90;;;;;;6098403;23;20026;-89
2023/11/26 00:37:15;;;;;;;0.80;0.40;;;3.00;99.90;;;;;;6101650;23;20019;-89
2023/11/26 00:39:42;;;;;;;2.63;0.60;;;3.00;99.90;;;;;;6097622;23;20022;-89
2023/11/26 00:42:10;;;;;;;1.70;0.40;;;2.90;99.90;;;;;;6076250;23;20022;-89
2023/11/26 00:44:37;;;;;;;2.07;0.47;;;2.90;99.90;;;;;;6097402;23;20022;-89
2023/11/26 00:47:09;;;;;;;1.05;0.30;;;2.90;99.90;;;;;;6099084;23;20045;-89
2023/11/26 00:49:37;;;;;;;1.40;0.50;;;2.90;99.90;;;;;;6097086;23;20018;-89
2023/11/26 00:52:04;;;;;;;1.13;0.50;;;2.80;99.90;;;;;;6098812;23;20077;-89
2023/11/26 00:54:32;;;;;;;2.60;0.40;;;2.80;99.90;;;;;;6073988;23;20505;-89
2023/11/26 00:56:59;;;;;;;1.67;0.60;;;2.80;99.90;;;;;;6097135;23;20097;-89
2023/11/26 00:59:26;;;;;;;2.90;0.50;;;2.80;99.90;;;;;;6096857;23;20027;-89
2023/11/26 01:01:54;;;;;;;0.85;0.30;;;2.70;99.90;;;;;;6073575;23;20032;-89
2023/11/26 01:04:22;;;;;;;1.03;0.30;;;2.70;99.90;;;;;;6102150;23;20124;-89
2023/11/26 01:06:50;;;;;;;1.83;0.60;;;2.70;99.90;;;;;;6097778;23;20077;-89
2023/11/26 01:09:20;;;;;;;2.40;0.85;;;2.70;99.90;;;;;;6101244;23;20022;-89
2023/11/26 01:11:47;;;;;;;2.38;0.50;;;2.70;99.90;;;;;;6054738;23;20017;-89
2023/11/26 01:14:14;;;;;;;1.33;0.40;;;2.60;99.90;;;;;;6076507;23;20019;-89
2023/11/26 01:16:44;;;;;;;1.20;0.50;;;2.60;99.90;;;;;;6097139;23;20460;-89
2023/11/26 01:19:11;;;;;;;1.27;0.40;;;2.60;99.90;;;;;;6095038;23;20035;-88
2023/11/26 01:21:39;;;;;;;1.70;0.50;;;2.60;99.90;;;;;;6126574;23;20022;-89
2023/11/26 01:24:13;;;;;;;3.23;1.00;;;2.60;99.90;;;;;;6129247;23;20025;-89
2023/11/26 01:26:41;;;;;;;1.83;0.80;;;2.50;99.90;;;;;;6125922;23;20523;-89
2023/11/26 01:29:08;;;;;;;1.10;0.50;;;2.50;99.90;;;;;;6127903;23;20073;-89
2023/11/26 01:31:37;;;;;;;0.77;0.30;;;2.50;99.90;;;;;;6130976;23;20041;-88
2023/11/26 01:34:04;;;;;;;2.03;0.60;;;2.50;99.90;;;;;;6058917;23;20041;-89
2023/11/26 01:36:34;;;;;;;2.77;0.60;;;2.50;99.90;;;;;;6102445;23;20018;-89
2023/11/26 01:39:02;;;;;;;3.00;0.70;;;2.60;99.90;;;;;;6126518;23;20026;-88
2023/11/26 01:41:29;;;;;;;2.93;0.70;;;2.60;99.90;;;;;;6125996;23;20052;-89
2023/11/26 01:43:57;;;;;;;2.10;0.60;;;2.70;99.90;;;;;;6102445;23;20112;-89
2023/11/26 01:46:27;;;;;;;1.95;0.80;;;2.70;99.90;;;;;;6126498;23;20025;-89
2023/11/26 01:48:54;;;;;;;2.40;0.80;;;2.70;99.90;;;;;;6102824;23;20042;-89
2023/11/26 01:51:27;;;;;;;1.90;0.63;;;2.70;99.90;;;;;;6108366;23;20025;-89
2023/11/26 01:53:55;;;;;;;2.45;0.90;;;2.70;99.90;;;;;;6137322;23;20076;-89
2023/11/26 01:56:24;;;;;;;3.42;1.40;;;2.70;99.90;;;;;;6126885;23;20109;-88
2023/11/26 01:58:51;;;;;;;4.22;1.02;;;2.70;99.90;;;;;;6102517;23;20026;-89
2023/11/26 02:01:22;;;;;;;2.67;1.20;;;2.70;99.90;;;;;;6130354;23;20036;-89
2023/11/26 02:03:49;;;;;;;3.88;1.45;;;2.80;99.90;;;;;;6125837;23;20500;-88
2023/11/26 02:06:17;;;;;;;5.18;1.90;;;2.80;99.90;;;;;;6130402;23;20032;-89
2023/11/26 02:08:45;;;;;;;5.33;1.40;;;2.80;99.90;;;;;;6126433;23;20050;-89
2023/11/26 02:11:12;;;;;;;3.43;1.70;;;2.80;99.90;;;;;;6129108;23;20022;-89
2023/11/26 02:13:52;;;;;;;6.40;2.58;;;2.80;99.90;;;;;;6101907;23;20085;-88
2023/11/26 02:16:24;;;;;;;4.93;2.40;;;2.80;99.90;;;;;;6150948;23;20445;-89
2023/11/26 02:18:51;;;;;;;6.07;2.65;;;2.80;99.90;;;;;;6126601;23;20025;-89
2023/11/26 02:21:18;;;;;;;4.45;2.40;;;2.80;99.90;;;;;;6126266;23;20018;-89
2023/11/26 02:23:46;;;;;;;6.95;2.92;;;2.80;99.90;;;;;;6118472;23;20021;-89
2023/11/26 02:26:14;;;;;;;5.70;2.20;;;2.80;99.90;;;;;;6125988;23;20345;-88
2023/11/26 02:28:43;;;;;;;9.32;3.28;;;2.80;99.90;;;;;;6077540;23;20109;-89
2023/11/26 02:31:10;;;;;;;11.88;4.00;;;2.80;99.90;;;;;;6124936;23;20022;-89
2023/11/26 02:33:39;;;;;;;8.88;3.15;;;2.80;99.90;;;;;;6119378;23;20065;-89
2023/11/26 02:36:25;;;;;;;10.50;3.10;;;2.80;99.90;;;;;;6152647;23;20050;-88
2023/11/26 02:38:54;;;;;;;7.80;3.33;;;2.80;99.90;;;;;;6122126;23;20022;-89
2023/11/26 02:41:22;;;;;;;5.97;2.90;;;2.80;99.90;;;;;;6127612;23;20022;-89
2023/11/26 02:43:49;;;;;;;7.32;3.30;;;2.80;99.90;;;;;;6121431;23;20050;-89
2023/11/26 02:46:19;;;;;;;8.07;3.30;;;2.80;99.90;;;;;;6103394;23;20033;-89
2023/11/26 02:48:47;;;;;;;9.95;3.50;;;2.80;99.90;;;;;;6079798;23;20099;-88
2023/11/26 02:51:16;;;;;;;9.02;3.45;;;2.80;99.90;;;;;;6056314;23;20105;-89
2023/11/26 02:53:44;;;;;;;5.35;2.20;;;2.80;99.90;;;;;;6095535;23;20014;-89
2023/11/26 02:56:13;;;;;;;4.97;2.22;;;2.80;99.90;;;;;;6055969;23;20046;-89
2023/11/26 02:58:41;;;;;;;6.15;2.63;;;2.80;99.90;;;;;;6118761;23;20026;-88
2023/11/26 03:01:19;;;;;;;5.25;2.35;;;2.80;99.90;;;;;;6127467;23;20026;-89
2023/11/26 03:03:47;;;;;;;6.13;2.53;;;2.70;99.90;;;;;;6120271;23;20025;-89
2023/11/26 03:06:22;;;;;;;7.47;2.75;;;2.70;99.90;;;;;;6128002;23;20026;-89
2023/11/26 03:08:59;;;;;;;5.07;2.30;;;2.70;99.90;;;;;;6080787;23;20025;-88
2023/11/26 03:14:16;;;;;;;5.18;2.00;;;2.70;99.90;;;;;;6128008;23;20017;-88
2023/11/26 03:16:46;;;;;;;4.80;1.90;;;2.70;99.90;;;;;;6119789;23;20100;-89
2023/11/26 03:19:15;;;;;;;4.57;1.80;;;2.70;99.90;;;;;;6127826;23;20101;-89
2023/11/26 03:21:47;;;;;;;4.10;1.80;;;2.60;99.90;;;;;;6119157;23;20021;-88
2023/11/26 03:24:17;;;;;;;3.50;1.45;;;2.60;99.90;;;;;;6103505;23;20026;-88
2023/11/26 03:26:44;;;;;;;3.92;1.58;;;2.60;99.90;;;;;;6119518;23;20022;-90
2023/11/26 03:29:22;;;;;;;3.72;1.55;;;2.60;99.90;;;;;;6128586;23;20045;-88
2023/11/26 03:31:53;;;;;;;4.50;1.58;;;2.60;99.90;;;;;;6120815;23;20022;-88
2023/11/26 03:34:23;;;;;;;5.80;1.95;;;2.60;99.90;;;;;;6104021;23;20022;-89
2023/11/26 03:36:50;;;;;;;4.10;1.67;;;2.60;99.90;;;;;;6120721;23;20014;-89
2023/11/26 03:39:18;;;;;;;3.70;2.00;;;2.60;99.90;;;;;;6102939;23;20052;-89
2023/11/26 03:41:45;;;;;;;6.03;1.73;;;2.60;99.90;;;;;;6095520;23;20026;-89
2023/11/26 03:44:12;;;;;;;5.20;1.80;;;2.70;99.90;;;;;;6103057;23;20104;-89
2023/11/26 03:46:40;;;;;;;4.73;1.20;;;2.60;99.90;;;;;;6079029;23;20022;-85
2023/11/26 03:49:10;;;;;;;2.70;1.20;;;2.70;99.90;;;;;;6056187;23;20014;-85
2023/11/26 03:51:38;;;;;;;4.17;1.70;;;2.70;99.90;;;;;;6117870;23;20096;-85
2023/11/26 03:54:05;;;;;;;2.87;1.07;;;2.70;99.90;;;;;;6078986;23;20104;-85
2023/11/26 03:56:33;;;;;;;2.97;1.30;;;2.70;99.90;;;;;;6116718;23;20341;-85
2023/11/26 03:59:01;;;;;;;3.83;1.00;;;2.70;99.90;;;;;;6126849;23;20029;-85
2023/11/26 04:01:32;;;;;;;2.77;1.13;;;2.60;99.90;;;;;;6116231;23;20381;-85
2023/11/26 04:04:00;;;;;;;2.10;0.95;;;2.60;99.90;;;;;;6127131;23;20021;-85
2023/11/26 04:06:30;;;;;;;2.10;1.07;;;2.60;99.90;;;;;;6115813;23;20077;-85
2023/11/26 04:08:58;;;;;;;2.03;0.70;;;2.50;99.90;;;;;;6102961;23;20044;-85
2023/11/26 04:11:25;;;;;;;4.35;1.00;;;2.50;99.90;;;;;;6126727;23;20010;-85
2023/11/26 04:13:55;;;;;;;1.52;0.70;;;2.50;99.90;;;;;;6102843;23;20025;-85
2023/11/26 04:16:24;;;;;;;4.90;0.77;;;2.50;99.90;;;;;;6126800;23;20018;-85
2023/11/26 04:18:55;;;;;;;2.67;0.77;;;2.50;99.90;;;;;;6103154;23;20029;-85
2023/11/26 04:21:22;;;;;;;2.05;0.80;;;2.50;99.90;;;;;;6131457;23;20041;-85
2023/11/26 04:23:49;;;;;;;3.45;1.55;;;2.40;99.90;;;;;;6126798;23;20026;-85
2023/11/26 04:26:16;;;;;;;2.75;0.98;;;2.40;99.90;;;;;;6130960;23;20022;-85
2023/11/26 04:28:43;;;;;;;1.58;0.60;;;2.40;99.90;;;;;;6126774;23;20025;-85
2023/11/26 04:31:10;;;;;;;2.67;0.77;;;2.40;99.90;;;;;;6129081;23;20018;-85
2023/11/26 04:33:38;;;;;;;1.55;0.60;;;2.40;99.90;;;;;;6126034;23;20028;-85
2023/11/26 04:36:06;;;;;;;2.38;0.50;;;2.40;99.90;;;;;;6056321;23;20033;-85
2023/11/26 04:38:33;;;;;;;2.80;0.68;;;2.30;99.90;;;;;;6126690;23;20420;-84
2023/11/26 04:41:00;;;;;;;1.92;1.20;;;2.30;99.90;;;;;;6102860;23;20022;-85
2023/11/26 04:43:27;;;;;;;2.03;0.75;;;2.30;99.90;;;;;;6126246;23;20025;-85
2023/11/26 04:45:54;;;;;;;1.92;0.52;;;2.30;99.90;;;;;;6102239;23;20021;-85
2023/11/26 04:48:21;;;;;;;1.40;0.50;;;2.30;99.90;;;;;;6155621;23;20052;-85
2023/11/26 04:50:52;;;;;;;2.50;0.77;;;2.30;99.90;;;;;;6131308;23;20052;-85
2023/11/26 04:53:20;;;;;;;1.70;0.60;;;2.20;99.90;;;;;;6106301;23;20025;-85
2023/11/26 04:55:50;;;;;;;1.75;0.50;;;2.20;99.90;;;;;;6126222;23;20022;-85
2023/11/26 04:58:17;;;;;;;1.92;0.60;;;2.20;99.90;;;;;;6129969;23;20018;-85
2023/11/26 05:00:49;;;;;;;4.57;0.73;;;2.20;99.90;;;;;;6126493;23;20022;-85
2023/11/26 05:03:17;;;;;;;1.52;0.70;;;2.20;99.90;;;;;;6129903;23;20049;-85
2023/11/26 05:05:45;;;;;;;1.95;0.60;;;2.20;99.90;;;;;;6107327;23;20021;-85
2023/11/26 05:08:12;;;;;;;1.50;0.60;;;2.20;99.90;;;;;;6129165;23;20033;-85
2023/11/26 05:10:43;;;;;;;1.20;0.55;;;2.20;99.90;;;;;;6131190;23;20024;-84
2023/11/26 05:13:11;;;;;;;2.30;0.70;;;2.30;99.90;;;;;;6128620;23;20018;-85
2023/11/26 05:15:38;;;;;;;1.90;0.60;;;2.30;99.90;;;;;;6102152;23;20069;-84
2023/11/26 05:18:33;;;;;;;3.38;0.90;;;2.40;99.90;;;;;;6126796;23;20461;-85
2023/11/26 05:21:09;;;;;;;2.78;0.70;;;2.40;99.90;;;;;;6088222;23;20032;-85
2023/11/26 05:23:38;;;;;;;1.42;0.70;;;2.50;99.90;;;;;;6125993;23;20463;-85
2023/11/26 05:26:06;;;;;;;3.27;0.70;;;2.40;99.90;;;;;;6127447;23;20025;-85
2023/11/26 05:28:33;;;;;;;2.90;0.80;;;2.40;99.90;;;;;;6126137;23;20018;-85
2023/11/26 05:31:00;;;;;;;2.37;0.67;;;2.40;99.90;;;;;;6101974;23;20022;-85
2023/11/26 05:33:28;;;;;;;1.50;0.60;;;2.40;99.90;;;;;;6106759;23;20022;-84
2023/11/26 05:35:55;;;;;;;1.63;0.50;;;2.50;99.90;;;;;;6126162;23;20018;-85
2023/11/26 05:38:22;;;;;;;1.37;0.50;;;2.50;99.90;;;;;;6102190;23;20100;-85
2023/11/26 05:40:49;;;;;;;1.33;0.40;;;2.50;99.90;;;;;;6083173;23;20025;-85
2023/11/26 05:43:16;;;;;;;1.35;0.50;;;2.50;99.90;;;;;;6115185;23;20026;-85
2023/11/26 05:45:46;;;;;;;1.63;0.50;;;2.50;99.90;;;;;;6168363;23;20020;-85
2023/11/26 05:48:15;;;;;;;1.40;0.60;;;2.50;99.90;;;;;;6147455;23;20033;-85
2023/11/26 05:50:42;;;;;;;2.07;0.40;;;2.60;99.90;;;;;;6124312;23;20017;-85
2023/11/26 05:53:09;;;;;;;1.98;1.13;;;2.60;99.90;;;;;;6133356;23;20037;-85
2023/11/26 05:55:37;;;;;;;3.03;0.50;;;2.70;99.90;;;;;;6128503;23;20029;-85
2023/11/26 05:58:04;;;;;;;4.45;0.80;;;2.70;99.90;;;;;;6129889;23;20017;-85
2023/11/26 06:00:31;;;;;;;1.88;0.63;;;2.80;99.90;;;;;;6151388;23;20018;-85
2023/11/26 06:03:01;;;;;;;1.85;0.65;;;2.90;99.90;;;;;;6126285;23;20110;-85
2023/11/26 06:05:28;;;;;;;1.60;0.57;;;2.90;99.90;;;;;;6132680;23;20017;-85
2023/11/26 06:07:56;;;;;;;1.70;0.60;;;3.00;99.90;;;;;;6157750;23;20017;-85
2023/11/26 06:10:23;;;;;;;1.50;0.65;;;3.00;99.90;;;;;;6132802;23;20032;-85
2023/11/26 06:12:50;;;;;;;2.22;0.98;;;3.00;99.90;;;;;;6128118;23;20451;-85
2023/11/26 06:15:17;;;;;;;2.25;0.60;;;3.10;99.90;;;;;;6131600;23;20486;-85
2023/11/26 06:17:45;;;;;;;4.75;0.77;;;3.10;99.90;;;;;;6128100;23;20026;-85
2023/11/26 06:20:13;;;;;;;2.65;0.70;;;3.10;99.90;;;;;;6130205;23;20030;-85
2023/11/26 06:22:40;;;;;;;3.17;1.20;;;3.10;99.90;;;;;;6108286;23;20027;-85
2023/11/26 06:25:11;;;;;;;3.55;1.38;;;3.10;99.90;;;;;;6129258;23;20030;-85
2023/11/26 06:27:41;;;;;;;3.53;1.45;;;3.10;99.90;;;;;;6127435;23;20049;-85
2023/11/26 06:30:09;;;;;;;3.42;1.23;;;3.20;99.90;;;;;;6105172;23;20069;-85
2023/11/26 06:32:37;;;;;;;4.78;1.17;;;3.20;99.90;;;;;;6128129;23;20025;-85
2023/11/26 06:35:04;;;;;;;6.18;1.13;;;3.20;99.90;;;;;;6104878;23;20022;-85
2023/11/26 06:37:32;;;;;;;3.25;1.10;;;3.20;99.90;;;;;;6127918;23;20017;-84
2023/11/26 06:39:59;;;;;;;2.72;1.23;;;3.30;99.90;;;;;;6103443;23;20112;-85
2023/11/26 06:42:29;;;;;;;3.17;1.00;;;3.30;99.90;;;;;;6127634;23;20349;-85
2023/11/26 06:44:56;;;;;;;5.90;1.00;;;3.30;99.90;;;;;;6127339;23;20042;-85
2023/11/26 06:47:29;;;;;;;3.80;1.10;;;3.30;99.90;;;;;;6103321;23;20091;-85
2023/11/26 06:49:57;;;;;;;5.15;1.30;;;3.30;99.90;;;;;;6127368;23;20045;-85
2023/11/26 06:52:29;;;;;;;3.50;1.23;;;3.30;99.90;;;;;;6127303;23;20492;-85
2023/11/26 06:54:57;;;;;;;5.00;1.75;;;3.40;99.90;;;;;;6151624;23;20018;-84
2023/11/26 06:57:24;;;;;;;5.77;2.03;;;3.40;99.90;;;;;;6103066;23;20018;-85
2023/11/26 06:59:52;;;;;;;4.47;1.65;;;3.40;99.90;;;;;;6079454;23;20026;-85
2023/11/26 07:02:20;;;;;;;3.95;2.00;;;3.40;99.90;;;;;;6107366;23;20407;-85
2023/11/26 07:04:47;;;;;;;3.47;1.60;;;3.40;99.90;;;;;;6108179;23;20068;-85
2023/11/26 07:07:20;;;;;;;3.33;1.17;;;3.50;99.90;;;;;;6084176;23;20025;-85
2023/11/26 07:09:49;;;;;;;4.85;1.40;;;3.50;99.90;;;;;;6127573;23;20097;-85
2023/11/26 07:12:16;;;;;;;2.73;1.07;;;3.50;99.90;;;;;;6107170;23;20085;-85
2023/11/26 07:14:46;;;;;;;3.08;0.85;;;3.50;99.90;;;;;;6127265;23;20029;-85
2023/11/26 07:17:13;;;;;;;3.67;1.00;;;3.50;99.90;;;;;;6130496;23;20045;-85
2023/11/26 07:19:41;;;;;;;2.60;1.20;;;3.50;99.90;;;;;;6126785;23;20036;-85
2023/11/26 07:22:11;;;;;;;4.88;1.13;;;3.60;99.90;;;;;;6104943;23;20037;-85
2023/11/26 07:24:41;;;;;;;3.28;1.17;;;3.60;99.90;;;;;;6127372;23;20038;-85
2023/11/26 07:27:08;;;;;;;6.43;1.23;;;3.60;99.90;;;;;;6129861;23;20118;-85
2023/11/26 07:29:37;;;;;;;3.40;1.53;;;3.60;99.90;;;;;;6126897;23;20018;-85
2023/11/26 07:32:05;;;;;;;3.78;1.30;;;3.70;99.90;;;;;;6080309;23;20105;-85
2023/11/26 07:34:35;;;;;;;3.53;1.30;;;3.70;99.90;;;;;;6151684;23;20015;-85
2023/11/26 07:37:02;;;;;;;3.10;1.20;;;3.70;99.90;;;;;;6103133;23;20021;-85
2023/11/26 07:39:32;;;;;;;1.90;0.90;;;3.80;99.90;;;;;;6126572;23;20326;-85
2023/11/26 07:41:59;;;;;;;2.00;0.98;;;3.80;99.90;;;;;;6103132;23;20086;-85
2023/11/26 07:44:26;;;;;;;2.53;1.25;;;3.80;99.90;;;;;;6107491;23;20021;-85
2023/11/26 07:46:54;;;;;;;2.33;0.90;;;3.80;99.90;;;;;;6102867;23;20032;-85
2023/11/26 07:49:23;;;;;;;4.07;1.60;;;3.90;99.90;;;;;;6103627;23;20026;-86
2023/11/26 07:51:50;;;;;;;3.63;1.02;;;3.90;99.90;;;;;;6126763;23;20113;-86
2023/11/26 07:54:19;;;;;;;2.25;0.80;;;3.90;99.90;;;;;;6106678;23;20046;-85
2023/11/26 07:56:51;;;;;;;2.00;0.73;;;3.90;99.90;;;;;;6109076;23;20072;-86
2023/11/26 07:59:19;;;;;;;3.67;0.75;;;3.90;99.90;;;;;;6131100;23;20021;-86
2023/11/26 08:01:49;;;;;;;3.20;0.80;;;4.00;99.90;;;;;;6127244;23;20031;-86
2023/11/26 08:04:18;;;;;;;2.85;0.90;;;4.00;99.90;;;;;;6130848;23;20441;-86
2023/11/26 08:06:49;;;;;;;2.22;0.80;;;4.00;99.90;;;;;;6151376;23;20025;-86
2023/11/26 08:09:17;;;;;;;3.00;1.10;;;4.10;99.90;;;;;;6105932;23;20449;-85
2023/11/26 08:11:52;;;;;;;2.28;0.73;;;4.10;99.90;;;;;;6126431;23;20018;-86
2023/11/26 08:14:19;;;;;;;4.32;1.13;;;4.20;99.90;;;;;;6106444;23;20041;-85
2023/11/26 08:16:46;;;;;;;4.18;1.40;;;4.20;99.90;;;;;;6126480;23;20026;-86
2023/11/26 08:19:17;;;;;;;3.00;1.10;;;4.30;99.90;;;;;;6129462;23;20034;-86
2023/11/26 08:21:48;;;;;;;3.78;1.40;;;4.30;99.90;;;;;;6126439;23;20022;-86
2023/11/26 08:24:21;;;;;;;4.25;1.30;;;4.40;99.90;;;;;;6105418;23;20022;-87
2023/11/26 08:26:51;;;;;;;3.33;1.27;;;4.40;99.90;;;;;;6131016;23;20045;-87
2023/11/26 08:29:22;;;;;;;3.97;0.90;;;4.40;99.90;;;;;;6130327;23;20044;-83
2023/11/26 08:31:53;;;;;;;5.88;1.23;;;4.50;99.90;;;;;;6106699;23;20068;-87
2023/11/26 08:34:38;;;;;;;4.07;1.05;;;4.50;99.90;;;;;;6124827;23;20017;-88
2023/11/26 08:37:07;;;;;;;2.83;0.90;;;4.60;99.90;;;;;;6132378;23;20013;-88
2023/11/26 08:39:46;;;;;;;3.55;1.20;;;4.60;99.90;;;;;;6129876;23;20049;-88
2023/11/26 08:42:14;;;;;;;3.83;1.30;;;4.70;99.90;;;;;;6131416;23;20026;-88
2023/11/26 08:44:50;;;;;;;5.18;1.58;;;4.70;99.90;;;;;;6131328;23;20445;-87
2023/11/26 08:47:22;;;;;;;4.03;1.55;;;4.80;99.90;;;;;;6108276;23;20070;-87
2023/11/26 08:49:56;;;;;;;4.55;1.40;;;4.80;99.90;;;;;;6126478;23;20028;-87
2023/11/26 08:52:28;;;;;;;5.03;1.70;;;4.90;99.90;;;;;;6118758;23;20013;-86
2023/11/26 08:54:55;;;;;;;2.92;1.20;;;4.90;99.90;;;;;;6131338;23;20112;-87
2023/11/26 08:57:26;;;;;;;4.07;1.48;;;5.00;99.90;;;;;;6131262;23;20021;-86
2023/11/26 08:59:54;;;;;;;9.50;1.98;;;5.00;99.90;;;;;;6126609;23;20025;-87
2023/11/26 09:02:21;;;;;;;4.50;1.40;;;5.10;99.90;;;;;;6106668;23;20022;-86
2023/11/26 09:04:51;;;;;;;4.05;1.65;;;5.10;99.90;;;;;;6106889;23;20021;-86
2023/11/26 09:07:20;;;;;;;4.13;1.67;;;5.20;99.90;;;;;;6130459;23;20104;-87
2023/11/26 09:09:47;;;;;;;4.05;1.55;;;5.30;99.90;;;;;;6107081;23;20013;-87
2023/11/26 09:12:17;;;;;;;4.28;1.20;;;5.30;99.90;;;;;;6129297;23;20021;-87
2023/11/26 09:14:47;;;;;;;3.78;1.30;;;5.40;99.90;;;;;;6127025;23;20022;-86
2023/11/26 09:17:14;;;;;;;4.20;1.58;;;5.40;99.90;;;;;;6153864;23;20014;-87
2023/11/26 09:19:42;;;;;;;2.90;1.08;;;5.50;99.90;;;;;;6130406;23;20055;-87
2023/11/26 09:22:09;;;;;;;3.17;0.80;;;5.60;99.90;;;;;;6127857;23;20445;-86
2023/11/26 09:24:38;;;;;;;3.35;0.82;;;5.60;99.90;;;;;;6126433;23;20022;-85
2023/11/26 09:27:06;;;;;;;2.72;0.90;;;5.70;99.90;;;;;;6127579;23;20108;-86
2023/11/26 09:29:34;;;;;;;5.15;1.42;;;5.70;99.90;;;;;;6108020;23;20048;-89
2023/11/26 09:32:02;;;;;;;4.25;1.17;;;5.70;99.90;;;;;;6128189;23;20022;-90
2023/11/26 09:34:37;;;;;;;3.78;1.70;;;5.80;99.90;;;;;;6061618;23;20092;-87
2023/11/26 09:37:04;;;;;;;6.18;1.88;;;5.80;99.90;;;;;;6132817;23;20018;-87
2023/11/26 09:39:35;;;;;;;3.35;1.20;;;5.80;99.90;;;;;;6130701;23;20022;-88
2023/11/26 09:42:07;;;;;;;5.50;1.50;;;5.80;99.90;;;;;;6105900;23;20026;-88
2023/11/26 09:44:34;;;;;;;4.65;1.40;;;5.90;99.90;;;;;;6126288;23;20030;-87
2023/11/26 09:47:03;;;;;;;3.65;1.25;;;5.90;99.90;;;;;;6127217;23;20026;-87
2023/11/26 09:49:32;;;;;;;4.63;1.65;;;5.90;99.90;;;;;;6126243;23;20053;-88
2023/11/26 09:52:02;;;;;;;6.38;1.67;;;5.90;99.90;;;;;;6078438;23;20029;-87
2023/11/26 09:54:31;;;;;;;4.53;1.67;;;5.90;99.90;;;;;;6126616;23;20360;-88
2023/11/26 09:56:59;;;;;;;4.40;1.73;;;5.90;99.90;;;;;;6101820;23;20326;-87
2023/11/26 09:59:28;;;;;;;6.03;1.55;;;6.00;99.90;;;;;;6150466;23;20018;-88
2023/11/26 10:01:55;;;;;;;6.90;1.92;;;6.00;99.90;;;;;;6102261;23;20025;-88
2023/11/26 10:04:56;;;;;;;5.07;1.70;;;6.10;99.90;;;;;;6084391;23;20027;-88
2023/11/26 10:07:35;;;;;;;3.53;1.20;;;6.10;99.90;;;;;;6008381;23;20508;-88
2023/11/26 10:10:09;;;;;;;4.03;1.00;;;6.20;99.90;;;;;;6019182;23;20018;-86
2023/11/26 10:12:57;;;;;;;4.35;0.82;;;6.20;99.90;;;;;;6043279;23;20030;-89
2023/11/26 10:15:42;;;;;;;2.55;1.05;;;6.30;99.90;;;;;;6019577;23;20046;-88
2023/11/26 10:18:15;;;;;;;3.55;1.20;;;6.30;99.90;;;;;;6018836;23;20015;-88
2023/11/26 10:21:03;;;;;;;5.13;1.70;;;6.40;99.90;;;;;;6020454;23;20106;-86
2023/11/26 10:23:36;;;;;;;7.30;1.55;;;6.40;99.90;;;;;;6091172;23;20021;-87
2023/11/26 10:26:26;;;;;;;5.13;1.95;;;6.50;99.90;;;;;;6130723;23;20452;-87
2023/11/26 10:29:08;;;;;;;5.07;1.63;;;6.50;99.90;;;;;;6126001;23;20026;-89
2023/11/26 10:32:00;;;;;;;3.90;1.60;;;6.50;99.90;;;;;;6150051;23;20349;-88
2023/11/26 10:34:32;;;;;;;6.38;2.28;;;6.60;99.90;;;;;;6101968;23;20018;-87
2023/11/26 10:37:20;;;;;;;8.20;2.08;;;6.60;99.90;;;;;;6126477;23;20029;-87
2023/11/26 10:39:56;;;;;;;7.18;2.38;;;6.60;99.90;;;;;;6125420;23;20026;-86
2023/11/26 10:42:31;;;;;;;4.38;2.30;;;6.60;99.90;;;;;;6101603;23;20468;-86
2023/11/26 10:45:21;;;;;;;8.05;2.58;;;6.70;99.90;;;;;;6129406;23;20018;-86
2023/11/26 10:48:31;;;;;;;5.38;1.55;;;6.60;99.90;;;;;;6129142;23;20022;-87
2023/11/26 10:51:30;;;;;;;5.43;2.10;;;6.70;99.90;;;;;;6129622;23;20018;-87
2023/11/26 10:54:09;;;;;;;3.42;1.60;;;6.70;99.90;;;;;;6127399;23;20028;-87
2023/11/26 10:56:43;;;;;;;6.18;2.30;;;6.70;99.90;;;;;;6132565;23;20021;-88
2023/11/26 10:59:27;;;;;;;5.93;1.60;;;6.70;99.90;;;;;;6157148;23;20069;-89
2023/11/26 11:02:01;;;;;;;9.27;2.45;;;6.70;99.90;;;;;;6127824;23;20032;-89
2023/11/26 11:05:00;;;;;;;4.45;1.80;;;6.70;99.90;;;;;;6127382;23;20048;-86
2023/11/26 11:07:31;;;;;;;5.22;1.50;;;6.70;99.90;;;;;;6132223;23;20025;-87
2023/11/26 11:10:31;;;;;;;5.07;1.45;;;6.70;99.90;;;;;;6130393;23;20021;-88
2023/11/26 11:13:45;;;;;;;;;;;;;;;;;;;;;
2023/11/26 11:16:40;;;;;;;5.55;1.80;;;6.80;99.90;;;;;;6158256;23;20084;-88
2023/11/26 11:19:52;;;;;;;4.35;1.98;;;6.80;99.90;;;;;;6108879;23;20026;-86
2023/11/26 11:22:59;;;;;;;4.28;1.80;;;6.90;99.90;;;;;;6122852;23;20026;-89
2023/11/26 11:25:29;;;;;;;5.28;2.33;;;6.90;99.90;;;;;;6103037;23;20121;-89
2023/11/26 11:27:59;;;;;;;12.90;3.08;;;7.00;99.90;;;;;;6103491;23;20022;-88
2023/11/26 11:30:41;;;;;;;7.85;2.60;;;7.00;99.90;;;;;;6072554;23;20013;-88
2023/11/26 11:34:18;;;;;;;4.43;2.10;;;7.00;99.90;;;;;;6132398;23;20019;-88
2023/11/26 11:37:09;;;;;;;4.70;1.65;;;7.10;99.90;;;;;;6124307;23;20021;-89
2023/11/26 11:39:50;;;;;;;4.35;1.90;;;7.10;99.90;;;;;;6121101;23;20021;-88
2023/11/26 11:42:28;;;;;;;5.95;1.50;;;7.20;99.90;;;;;;6132432;23;20026;-89
2023/11/26 11:45:28;;;;;;;3.55;1.25;;;7.30;99.90;;;;;;6127004;23;20029;-88
2023/11/26 11:47:59;;;;;;;6.20;2.25;;;7.40;99.90;;;;;;6103036;23;20441;-88
2023/11/26 11:50:30;;;;;;;4.07;1.70;;;7.40;99.90;;;;;;6132062;23;20049;-87
2023/11/26 11:53:40;;;;;;;4.13;1.50;;;7.50;99.90;;;;;;6084416;23;20049;-92
2023/11/26 11:56:18;;;;;;;7.40;2.00;;;7.50;99.90;;;;;;6131947;23;20044;-89
2023/11/26 11:58:51;;;;;;;5.63;1.77;;;7.60;99.90;;;;;;6127177;23;20018;-88
2023/11/26 12:01:20;;;;;;;7.28;2.33;;;7.60;99.90;;;;;;6131030;23;20072;-89
2023/11/26 12:04:42;;;;;;;5.90;1.88;;;7.70;99.90;;;;;;6121574;23;20074;-87
2023/11/26 12:07:10;;;;;;;4.70;1.70;;;7.80;99.90;;;;;;6132381;23;20021;-90
2023/11/26 12:09:38;;;;;;;6.13;1.67;;;7.80;99.90;;;;;;6151668;23;20026;-88
2023/11/26 12:12:20;;;;;;;5.18;1.98;;;7.80;99.90;;;;;;6130301;23;20338;-87
2023/11/26 12:14:50;;;;;;;7.25;2.33;;;7.70;99.90;;;;;;6127108;23;20018;-87
2023/11/26 12:17:21;;;;;;;5.47;1.80;;;7.70;99.90;;;;;;6132749;23;20096;-93
2023/11/26 12:20:00;;;;;;;6.35;1.92;;;7.70;99.90;;;;;;6128499;23;20468;-83
2023/11/26 12:22:38;;;;;;;3.80;1.45;;;7.70;99.90;;;;;;6127083;23;20018;-91
2023/11/26 12:25:23;;;;;;;;;;;;;;;;;;;;;
2023/11/26 12:28:32;;;;;;;6.63;1.70;;;7.70;99.90;;;;;;6126490;23;20033;-88
2023/11/26 12:31:06;;;;;;;;;;;7.60;99.90;;;;;;6141630;23;20046;-82
2023/11/26 12:33:41;;;;;;;4.40;1.58;;;7.60;99.90;;;;;;6126717;23;20004;-89
2023/11/26 12:36:20;;;;;;;5.88;1.65;;;7.50;99.90;;;;;;6109627;23;20029;-87
2023/11/26 12:38:49;;;;;;;4.50;1.52;;;7.60;99.90;;;;;;6102143;23;20022;-88
2023/11/26 12:41:18;;;;;;;5.72;1.45;;;7.60;99.90;;;;;;6129796;23;20022;-89
2023/11/26 12:43:49;;;;;;;5.45;1.38;;;7.50;99.90;;;;;;6126330;23;20017;-89
2023/11/26 12:46:40;;;;;;;5.78;1.17;;;7.50;99.90;;;;;;6130429;23;20459;-90
2023/11/26 12:49:58;;;;;;;5.38;1.80;;;7.50;99.90;;;;;;6118789;23;20083;-85
2023/11/26 12:52:33;;;;;;;6.60;1.40;;;7.50;99.90;;;;;;6126316;23;20101;-86
2023/11/26 12:55:14;;;;;;;;;;;;;;;;;;;;;
2023/11/26 12:57:45;;;;;;;3.70;1.38;;;7.40;99.90;;;;;;6129179;23;20018;-82
2023/11/26 13:00:43;;;;;;;3.53;1.10;;;7.30;99.90;;;;;;6083491;23;20041;-89
2023/11/26 13:03:22;;;;;;;5.40;0.60;;;7.30;99.90;;;;;;6131820;23;20027;-90
2023/11/26 13:06:06;;;;;;;4.78;1.15;;;7.30;99.90;;;;;;6132313;23;20258;-87
2023/11/26 13:08:42;;;;;;;4.68;1.50;;;7.30;99.90;;;;;;6137108;23;20076;-89
2023/11/26 13:11:20;;;;;;;3.33;0.90;;;7.30;99.90;;;;;;6143818;23;20041;-85
2023/11/26 13:13:48;;;;;;;4.70;1.00;;;7.30;99.90;;;;;;6132274;23;20495;-84
2023/11/26 13:16:17;;;;;;;3.08;1.05;;;7.30;99.90;;;;;;6107010;23;20014;-82
2023/11/26 13:18:44;;;;;;;8.80;2.22;;;7.30;99.90;;;;;;6126197;23;20024;-80
2023/11/26 13:21:11;;;;;;;6.45;1.58;;;7.30;99.90;;;;;;6105148;23;20028;-89
2023/11/26 13:23:38;;;;;;;5.95;1.83;;;7.30;99.90;;;;;;6107120;23;20017;-84
2023/11/26 13:26:10;;;;;;;4.93;1.98;;;7.30;99.90;;;;;;6107298;23;20027;-86
2023/11/26 13:28:39;;;;;;;4.78;1.83;;;7.30;99.90;;;;;;6127174;23;20021;-85